Durango, CO (81301)

3:30 PM MDT on May 24, 2015 (GMT -0600)
Falls Creek Ranch | | Change Station
CLOSE
Current Station
Personal Weather Station
Location: Durango, CO
Elevation: 7560 ft
Nearby Weather Stations

Elev 7560 ft 37.29 °N, 107.87 °W | Updated 8 minutes ago

Mostly Cloudy
Mostly Cloudy
51.7 °F
Feels Like 51.7 °F
N
6.0
Wind Variable Wind from SE
Gusts 10.0 mph

Today
High -- | Low -- °F
--% Chance of Precip.
Yesterday
High -- | Low -- °F
Precip. -- in
5:56 AM 8:20 PM
Waxing Crescent, 42% visible
Pressure 29.85 in
Visibility 10.0 miles
Clouds Scattered Clouds 3400 ft
Scattered Clouds 4000 ft
Dew Point 40 °F
Humidity 65%
Rainfall 0.02 in
Snow Depth Not available.
UV 9 out of 12
Pollen 1.80 out of 12
Air Quality Not available.
Flu Activity Sporadic
METAR KDRO 242053Z AUTO 22014G23KT 10SM SCT034 SCT040 14/04 A2996 RMK AO2 SLP108 60001 T01390044 58012

More Conditions Fewer Conditions

Pressure 29.85 in
Visibility 10.0 miles
Clouds Scattered Clouds 3400 ft
Scattered Clouds 4000 ft
Dew Point 40 °F
Humidity 65%
Rainfall 0.02 in
Snow Depth Not available.
UV 9 out of 12
Pollen 1.80 out of 12
Air Quality Not available.
Flu Activity Sporadic
METAR KDRO 242053Z AUTO 22014G23KT 10SM SCT034 SCT040 14/04 A2996 RMK AO2 SLP108 60001 T01390044 58012

More Conditions Fewer Conditions

10-Day Weather Forecast

Almanac

Astronomy

May. 24, 2015 Rise Set
Actual Time
Civil Twilight
Nautical Twilight
Astronomical Twilight
Moon
Length of Visible Light
Length of Day
Tomorrow will be .
, % of the Moon is Illuminated

Today's Extremes

State Highs State Lows

Community

WunderPhotos

Upload Photos

1,823,872 photos uploaded!

WunderBlogs® & News

Nearby

Air Quality

  Air Quality AQ Index Pollutant
Not available.

Snow Depth

Station Depth Elevation

Earthquake Activity

City Distance Mag. Time & Date
Minimum magnitude displayed is 2.5.

Coastal Water Temperatures

Place Temperature

Stations

Nearby Weather Stations

Station Location Temp. Windchill Dew Point Humidity Wind Precip. Elev Updated Type